Time;durP1;ratioP1;P1;durP2;ratioP2;P2;SDS_P1;SDS_P2;PMS_P1;PMS_P2;Temp;Humidity;BMP_temperature;BMP_pressure;BME280_temperature;BME280_humidity;BME280_pressure;Samples;Min_cycle;Max_cycle;Signal;HPM_P1;HPM_P2
2024/03/19 00:01:39;;;;;;;0.40;0.20;;;17.00;75.00;;;;;;4999348;28;20035;-78
2024/03/19 00:04:08;;;;;;;0.30;0.13;;;17.00;75.10;;;;;;4988362;28;20043;-78
2024/03/19 00:06:34;;;;;;;0.30;0.20;;;17.00;75.90;;;;;;4987778;28;20112;-77
2024/03/19 00:09:00;;;;;;;0.40;0.20;;;17.00;75.00;;;;;;4971721;28;20480;-77
2024/03/19 00:11:25;;;;;;;0.20;0.20;;;17.00;75.00;;;;;;4969461;28;20536;-77
2024/03/19 00:13:51;;;;;;;0.40;0.40;;;17.00;75.70;;;;;;4967265;28;20533;-77
2024/03/19 00:16:16;;;;;;;0.17;0.17;;;17.00;75.00;;;;;;4986709;28;20066;-77
2024/03/19 00:18:45;;;;;;;0.30;0.20;;;17.00;75.00;;;;;;4986679;28;20046;-78
2024/03/19 00:21:10;;;;;;;0.20;0.20;;;17.00;75.00;;;;;;4970350;28;20456;-78
2024/03/19 00:23:36;;;;;;;1.00;0.40;;;17.00;75.00;;;;;;4987933;28;20178;-78
2024/03/19 00:26:02;;;;;;;0.22;0.15;;;17.00;74.90;;;;;;4989447;28;20034;-78
2024/03/19 00:28:28;;;;;;;0.77;0.20;;;17.00;74.80;;;;;;4970335;28;20096;-78
2024/03/19 00:30:55;;;;;;;0.10;0.10;;;17.00;74.90;;;;;;4970625;28;20457;-77
2024/03/19 00:33:21;;;;;;;0.28;0.20;;;17.00;75.00;;;;;;4983284;28;20050;-78
2024/03/19 00:35:47;;;;;;;0.47;0.30;;;17.00;75.00;;;;;;4970428;28;20144;-78
2024/03/19 00:38:13;;;;;;;0.20;0.20;;;17.00;75.70;;;;;;4985652;28;20038;-78
2024/03/19 00:40:42;;;;;;;0.20;0.10;;;17.00;74.90;;;;;;4969088;28;20042;-77
2024/03/19 00:43:07;;;;;;;0.10;0.10;;;17.00;74.90;;;;;;4984549;28;20097;-77
2024/03/19 00:45:33;;;;;;;0.60;0.22;;;17.00;74.90;;;;;;4985560;28;20061;-77
2024/03/19 00:47:59;;;;;;;0.60;0.60;;;17.00;75.00;;;;;;4988010;28;20046;-77
2024/03/19 00:50:24;;;;;;;0.20;0.20;;;17.00;75.00;;;;;;4968772;28;20049;-77
2024/03/19 00:52:50;;;;;;;0.20;0.17;;;17.00;74.90;;;;;;4969535;28;20041;-77
2024/03/19 00:55:16;;;;;;;0.35;0.13;;;17.00;75.00;;;;;;4967955;28;20077;-77
2024/03/19 00:57:41;;;;;;;0.30;0.20;;;17.00;75.00;;;;;;4995660;28;20039;-77
2024/03/19 01:00:14;;;;;;;0.57;0.20;;;17.00;74.90;;;;;;4985503;28;20054;-78
2024/03/19 01:02:40;;;;;;;0.10;0.10;;;17.00;75.00;;;;;;4971083;28;20042;-76
2024/03/19 01:05:09;;;;;;;0.20;0.13;;;17.00;75.00;;;;;;4969278;28;20496;-87
2024/03/19 01:07:44;;;;;;;0.38;0.22;;;17.00;75.00;;;;;;4969648;28;20039;-88
2024/03/19 01:10:10;;;;;;;0.10;0.10;;;17.00;74.90;;;;;;4998070;28;20092;-89
2024/03/19 01:12:36;;;;;;;0.20;0.17;;;17.00;75.00;;;;;;4988570;28;20042;-87
2024/03/19 01:15:02;;;;;;;0.30;0.20;;;17.00;75.00;;;;;;4971038;28;20511;-87
2024/03/19 01:17:27;;;;;;;0.28;0.10;;;17.00;75.00;;;;;;4987684;28;20034;-90
2024/03/19 01:19:53;;;;;;;0.28;0.10;;;17.00;74.90;;;;;;4987906;28;20170;-89
2024/03/19 01:22:18;;;;;;;0.28;0.20;;;17.00;75.00;;;;;;4986301;28;20141;-87
2024/03/19 01:24:45;;;;;;;0.55;0.20;;;16.90;74.80;;;;;;4996276;28;20440;-88
2024/03/19 01:27:11;;;;;;;0.10;0.10;;;17.00;74.80;;;;;;4986790;28;20073;-86
2024/03/19 01:29:37;;;;;;;0.20;0.10;;;16.90;74.80;;;;;;4988478;28;20050;-86
2024/03/19 01:32:04;;;;;;;0.30;0.20;;;16.90;74.70;;;;;;4986159;28;20113;-85
2024/03/19 01:34:29;;;;;;;0.32;0.13;;;16.90;74.70;;;;;;4987479;28;20034;-86
2024/03/19 01:36:55;;;;;;;0.55;0.30;;;17.00;74.90;;;;;;4985587;28;20046;-86
2024/03/19 01:39:22;;;;;;;0.20;0.10;;;16.90;74.80;;;;;;4982471;28;20049;-86
2024/03/19 01:41:49;;;;;;;0.50;0.20;;;17.00;74.80;;;;;;4987832;28;20042;-87
2024/03/19 01:44:16;;;;;;;0.10;0.10;;;16.90;74.60;;;;;;4968560;28;20057;-86
2024/03/19 01:46:41;;;;;;;0.50;0.30;;;16.90;74.80;;;;;;4991854;28;20063;-86
2024/03/19 01:49:07;;;;;;;0.50;0.30;;;16.90;74.70;;;;;;4987133;28;20110;-86
2024/03/19 01:51:34;;;;;;;0.30;0.10;;;16.90;74.70;;;;;;4985974;28;20104;-86
2024/03/19 01:54:00;;;;;;;0.20;0.10;;;16.90;74.70;;;;;;4986728;28;20051;-86
2024/03/19 01:56:25;;;;;;;0.13;0.13;;;16.90;74.70;;;;;;4967797;28;20034;-86
2024/03/19 01:58:51;;;;;;;0.10;0.10;;;16.90;74.80;;;;;;4968933;28;20050;-86
2024/03/19 02:01:17;;;;;;;0.20;0.20;;;16.90;74.70;;;;;;4966893;28;20038;-87
2024/03/19 02:03:43;;;;;;;0.28;0.20;;;16.90;74.70;;;;;;4986444;28;20047;-87
2024/03/19 02:06:09;;;;;;;0.10;0.10;;;16.90;74.70;;;;;;4987074;28;20056;-87
2024/03/19 02:08:35;;;;;;;0.20;0.17;;;16.90;74.60;;;;;;5000975;28;20042;-85
2024/03/19 02:11:00;;;;;;;0.50;0.20;;;16.90;74.70;;;;;;4973107;28;20045;-87
2024/03/19 02:13:26;;;;;;;0.22;0.20;;;16.90;74.60;;;;;;5000506;28;20547;-87
2024/03/19 02:15:52;;;;;;;0.10;0.10;;;16.90;74.70;;;;;;4985058;28;20038;-86
2024/03/19 02:18:17;;;;;;;0.20;0.20;;;16.90;74.60;;;;;;4983944;28;20045;-85
2024/03/19 02:20:43;;;;;;;0.10;0.10;;;16.90;74.70;;;;;;4984924;28;20526;-85
2024/03/19 02:23:08;;;;;;;0.20;0.20;;;16.90;74.60;;;;;;4967053;28;20546;-85
2024/03/19 02:25:34;;;;;;;0.30;0.20;;;16.90;74.60;;;;;;4984470;28;20046;-86
2024/03/19 02:27:59;;;;;;;0.10;0.10;;;16.90;74.60;;;;;;4987255;28;20074;-87
2024/03/19 02:30:25;;;;;;;0.52;0.32;;;16.90;74.70;;;;;;4981721;28;20046;-88
2024/03/19 02:32:50;;;;;;;0.10;0.10;;;16.90;74.60;;;;;;4986373;28;20681;-87
2024/03/19 02:35:16;;;;;;;0.22;0.20;;;16.90;74.60;;;;;;4983969;28;20069;-84
2024/03/19 02:37:42;;;;;;;0.15;0.10;;;16.90;74.60;;;;;;4999319;28;20066;-84
2024/03/19 02:40:08;;;;;;;0.30;0.20;;;16.90;74.50;;;;;;4982806;28;20058;-85
2024/03/19 02:42:34;;;;;;;0.32;0.15;;;16.90;74.50;;;;;;4984424;28;20534;-87
2024/03/19 02:44:59;;;;;;;0.10;0.10;;;16.90;74.60;;;;;;4982207;28;20047;-86
2024/03/19 02:47:25;;;;;;;0.28;0.17;;;16.90;74.60;;;;;;4966990;28;20065;-86
2024/03/19 02:49:51;;;;;;;0.47;0.30;;;16.90;74.60;;;;;;4952717;28;20133;-86
2024/03/19 02:52:16;;;;;;;0.22;0.20;;;16.90;74.60;;;;;;4966127;28;20377;-86
2024/03/19 02:54:42;;;;;;;0.20;0.20;;;16.90;74.60;;;;;;4986585;28;20077;-86
2024/03/19 02:57:07;;;;;;;0.17;0.10;;;16.90;74.60;;;;;;4984951;28;20065;-86
2024/03/19 02:59:33;;;;;;;0.20;0.20;;;16.90;75.20;;;;;;4989335;28;20138;-85
2024/03/19 03:01:58;;;;;;;0.17;0.10;;;16.80;74.40;;;;;;5004274;28;20046;-87
2024/03/19 03:04:24;;;;;;;0.20;0.20;;;16.90;74.50;;;;;;4967867;28;20062;-87
2024/03/19 03:06:50;;;;;;;0.45;0.17;;;16.90;74.50;;;;;;5004917;28;20047;-86
2024/03/19 03:09:17;;;;;;;0.15;0.10;;;16.90;74.50;;;;;;4987349;28;20460;-85
2024/03/19 03:11:43;;;;;;;0.30;0.15;;;16.90;74.60;;;;;;4984437;28;20074;-86
2024/03/19 03:14:08;;;;;;;0.20;0.20;;;16.90;74.50;;;;;;4988848;28;20512;-86
2024/03/19 03:16:34;;;;;;;0.10;0.10;;;16.90;74.50;;;;;;4988634;28;20105;-87
2024/03/19 03:19:00;;;;;;;0.30;0.10;;;16.90;74.50;;;;;;4989830;28;20035;-86
2024/03/19 03:21:26;;;;;;;0.10;0.10;;;16.90;74.60;;;;;;4988419;28;20126;-87
2024/03/19 03:23:52;;;;;;;0.30;0.20;;;16.80;75.20;;;;;;4988033;28;20129;-87
2024/03/19 03:26:18;;;;;;;0.10;0.10;;;16.80;74.50;;;;;;4988413;28;20046;-87
2024/03/19 03:28:44;;;;;;;0.00;0.00;;;16.90;74.50;;;;;;4990524;28;20129;-87
2024/03/19 03:31:09;;;;;;;0.08;0.08;;;16.90;74.60;;;;;;4987468;28;20096;-86
2024/03/19 03:33:35;;;;;;;0.00;0.00;;;16.90;74.60;;;;;;4987127;28;20050;-87
2024/03/19 03:36:01;;;;;;;0.10;0.10;;;16.90;74.50;;;;;;4989791;28;20046;-87
2024/03/19 03:38:26;;;;;;;0.17;0.17;;;16.80;74.30;;;;;;4989271;28;20459;-86
2024/03/19 03:40:55;;;;;;;0.10;0.10;;;16.90;74.40;;;;;;4988328;28;20034;-86
2024/03/19 03:43:21;;;;;;;0.20;0.20;;;16.90;74.40;;;;;;4986620;28;20567;-85
2024/03/19 03:45:47;;;;;;;0.30;0.20;;;16.90;74.60;;;;;;5004860;28;20042;-85
2024/03/19 03:48:12;;;;;;;0.20;0.20;;;16.90;74.40;;;;;;4998977;28;20554;-85
2024/03/19 03:50:38;;;;;;;0.25;0.20;;;16.80;74.40;;;;;;4987962;28;20050;-85
2024/03/19 03:53:03;;;;;;;0.17;0.10;;;16.90;74.40;;;;;;4989008;28;20404;-84
2024/03/19 03:55:29;;;;;;;0.13;0.13;;;16.80;74.40;;;;;;4971370;28;20081;-85
2024/03/19 03:57:55;;;;;;;0.25;0.10;;;16.80;74.40;;;;;;4972667;28;20046;-87
2024/03/19 04:00:21;;;;;;;0.00;0.00;;;16.80;74.40;;;;;;4985851;28;20133;-88
2024/03/19 04:02:48;;;;;;;0.10;0.10;;;16.80;74.50;;;;;;5003313;28;20125;-89
2024/03/19 04:05:13;;;;;;;0.17;0.17;;;16.80;75.10;;;;;;4985405;28;20061;-87
2024/03/19 04:07:41;;;;;;;0.17;0.17;;;16.80;74.40;;;;;;4953695;28;20050;-85
2024/03/19 04:10:14;;;;;;;0.15;0.10;;;16.80;74.40;;;;;;4986862;28;20041;-86
2024/03/19 04:12:40;;;;;;;0.90;0.20;;;16.80;74.30;;;;;;4985842;28;20054;-87
2024/03/19 04:15:06;;;;;;;0.30;0.10;;;16.80;74.40;;;;;;5004850;28;20459;-87
2024/03/19 04:17:33;;;;;;;0.13;0.10;;;16.80;74.40;;;;;;5000707;28;20413;-88
2024/03/19 04:19:59;;;;;;;0.70;0.30;;;16.80;74.40;;;;;;4975899;28;20082;-86
2024/03/19 04:22:25;;;;;;;0.20;0.20;;;16.80;75.10;;;;;;4988373;28;20565;-89
2024/03/19 04:24:51;;;;;;;0.22;0.22;;;16.80;74.30;;;;;;4990746;28;20511;-87
2024/03/19 04:27:16;;;;;;;0.15;0.13;;;16.80;74.40;;;;;;4986868;28;20104;-87
2024/03/19 04:29:42;;;;;;;0.10;0.10;;;16.80;74.30;;;;;;4988058;28;20133;-88
2024/03/19 04:32:07;;;;;;;0.10;0.10;;;16.80;74.30;;;;;;4955885;28;20100;-89
2024/03/19 04:34:33;;;;;;;0.20;0.20;;;16.80;74.30;;;;;;4985613;28;20512;-89
2024/03/19 04:36:59;;;;;;;0.20;0.20;;;16.80;74.30;;;;;;4988292;28;20077;-89
2024/03/19 04:39:24;;;;;;;0.20;0.10;;;16.80;74.30;;;;;;4989064;28;20136;-88
2024/03/19 04:41:50;;;;;;;0.08;0.00;;;16.80;74.30;;;;;;4988281;28;20092;-88
2024/03/19 04:44:15;;;;;;;0.30;0.20;;;16.80;74.30;;;;;;4986786;28;20045;-84
2024/03/19 04:46:41;;;;;;;0.17;0.10;;;16.80;74.30;;;;;;4975943;28;20049;-86
2024/03/19 04:49:07;;;;;;;0.30;0.10;;;16.80;74.30;;;;;;4986610;28;20392;-86
2024/03/19 04:51:32;;;;;;;0.40;0.20;;;16.80;74.30;;;;;;5000971;28;20054;-85
2024/03/19 04:53:58;;;;;;;0.30;0.10;;;16.80;74.40;;;;;;4989014;28;20554;-86
2024/03/19 04:56:23;;;;;;;0.40;0.10;;;16.80;74.30;;;;;;4968718;28;20082;-88
2024/03/19 04:58:50;;;;;;;0.10;0.10;;;16.80;74.30;;;;;;4985858;28;20480;-87
2024/03/19 05:01:16;;;;;;;0.10;0.10;;;16.80;74.30;;;;;;4986780;28;20551;-85
2024/03/19 05:03:41;;;;;;;0.32;0.20;;;16.80;74.10;;;;;;5002977;28;20423;-86
2024/03/19 05:06:11;;;;;;;0.20;0.10;;;16.80;74.20;;;;;;4987892;28;20570;-86
2024/03/19 05:08:37;;;;;;;0.10;0.10;;;16.80;74.20;;;;;;4986303;28;20049;-86
2024/03/19 05:11:03;;;;;;;0.38;0.30;;;16.80;74.30;;;;;;4988281;28;20562;-91
2024/03/19 05:13:28;;;;;;;0.20;0.10;;;16.80;74.30;;;;;;4990768;28;20046;-90
2024/03/19 05:15:54;;;;;;;0.13;0.13;;;16.80;74.30;;;;;;4989563;28;20034;-90
2024/03/19 05:18:19;;;;;;;0.25;0.10;;;16.80;74.30;;;;;;4986678;28;20042;-89
2024/03/19 05:20:45;;;;;;;0.20;0.10;;;16.80;74.20;;;;;;4984927;28;20092;-88
2024/03/19 05:23:10;;;;;;;0.10;0.10;;;16.80;74.30;;;;;;4986431;28;20045;-89
2024/03/19 05:25:36;;;;;;;0.77;0.10;;;16.80;74.30;;;;;;4985405;28;20050;-86
2024/03/19 05:28:02;;;;;;;2.42;0.13;;;16.80;74.20;;;;;;4984736;28;20065;-87
2024/03/19 05:30:29;;;;;;;0.45;0.20;;;16.80;74.20;;;;;;4984647;28;20061;-86
2024/03/19 05:32:55;;;;;;;0.30;0.20;;;16.80;74.10;;;;;;4988775;28;20498;-86
2024/03/19 05:35:20;;;;;;;0.20;0.10;;;16.80;74.10;;;;;;4967136;28;20568;-85
2024/03/19 05:37:46;;;;;;;0.30;0.20;;;16.80;75.00;;;;;;4985809;28;20472;-85
2024/03/19 05:40:12;;;;;;;0.45;0.25;;;16.80;74.10;;;;;;4986404;28;20089;-86
2024/03/19 05:42:38;;;;;;;0.32;0.10;;;16.80;74.20;;;;;;4983191;28;20479;-86
2024/03/19 05:45:04;;;;;;;0.22;0.10;;;16.80;74.30;;;;;;4984372;28;20508;-86
2024/03/19 05:47:31;;;;;;;0.52;0.17;;;16.80;74.20;;;;;;4969098;28;20039;-87
2024/03/19 05:49:57;;;;;;;0.20;0.20;;;16.80;74.30;;;;;;4986442;28;22126;-86
2024/03/19 05:52:24;;;;;;;1.00;0.10;;;16.80;75.00;;;;;;4985684;28;20104;-87
2024/03/19 05:54:50;;;;;;;0.35;0.10;;;16.80;74.30;;;;;;4985818;28;20066;-88
2024/03/19 05:57:16;;;;;;;0.15;0.10;;;16.80;75.00;;;;;;4982177;28;20034;-87
2024/03/19 05:59:41;;;;;;;0.10;0.10;;;16.70;74.20;;;;;;4984328;28;20050;-86
2024/03/19 06:02:08;;;;;;;0.15;0.10;;;16.80;74.20;;;;;;4986534;28;20053;-87
2024/03/19 06:04:34;;;;;;;0.22;0.20;;;16.80;74.20;;;;;;4983852;28;20122;-86
2024/03/19 06:07:00;;;;;;;0.20;0.10;;;16.80;74.20;;;;;;4968884;28;20443;-87
2024/03/19 06:09:25;;;;;;;0.13;0.10;;;16.80;74.20;;;;;;4985433;28;20046;-87
2024/03/19 06:11:51;;;;;;;0.10;0.10;;;16.80;74.20;;;;;;4984104;28;20039;-87
2024/03/19 06:14:16;;;;;;;0.30;0.10;;;16.80;74.00;;;;;;4984379;28;20042;-81
2024/03/19 06:16:42;;;;;;;0.22;0.20;;;16.80;74.10;;;;;;4988242;28;20518;-90
2024/03/19 06:19:07;;;;;;;0.30;0.20;;;16.80;74.50;;;;;;4970729;28;20046;-90
2024/03/19 06:21:33;;;;;;;0.22;0.20;;;16.90;75.10;;;;;;4987049;28;20052;-85
2024/03/19 06:24:01;;;;;;;0.15;0.10;;;16.90;74.50;;;;;;4988155;28;22321;-88
2024/03/19 06:26:27;;;;;;;0.22;0.20;;;16.90;74.40;;;;;;4987405;28;20062;-88
2024/03/19 06:28:53;;;;;;;0.00;0.00;;;16.90;74.30;;;;;;4987147;28;20077;-88
2024/03/19 06:31:19;;;;;;;0.20;0.10;;;16.90;74.60;;;;;;4984940;28;20443;-85
2024/03/19 06:33:44;;;;;;;0.13;0.10;;;16.90;74.50;;;;;;4999154;28;20145;-85
2024/03/19 06:36:10;;;;;;;0.15;0.10;;;16.90;74.60;;;;;;4984818;28;20038;-86
2024/03/19 06:38:36;;;;;;;2.05;0.50;;;16.90;74.60;;;;;;4985428;28;20042;-86
2024/03/19 06:41:01;;;;;;;0.40;0.17;;;16.90;74.60;;;;;;4986018;28;20038;-89
2024/03/19 06:43:28;;;;;;;0.30;0.10;;;16.90;74.70;;;;;;4985373;28;20049;-86
2024/03/19 06:45:53;;;;;;;0.30;0.30;;;16.90;74.80;;;;;;4635516;28;9999837;-86
2024/03/19 06:48:19;;;;;;;0.32;0.30;;;16.90;74.60;;;;;;4981870;28;20154;-87
2024/03/19 06:50:45;;;;;;;1.13;0.65;;;16.90;74.70;;;;;;4983152;28;20404;-86
2024/03/19 06:53:11;;;;;;;0.57;0.20;;;16.90;74.80;;;;;;4983417;28;20121;-86
2024/03/19 06:55:36;;;;;;;0.22;0.13;;;16.90;74.80;;;;;;4965338;28;20646;-87
2024/03/19 06:58:02;;;;;;;0.40;0.20;;;16.90;74.90;;;;;;4983637;28;20057;-86
2024/03/19 07:00:28;;;;;;;0.25;0.20;;;16.90;74.90;;;;;;4965614;28;20042;-86
2024/03/19 07:02:56;;;;;;;0.28;0.22;;;16.90;74.80;;;;;;4986266;28;20115;-88
2024/03/19 07:05:22;;;;;;;0.57;0.20;;;16.90;74.80;;;;;;4963878;28;20547;-85
2024/03/19 07:07:47;;;;;;;0.82;0.15;;;16.90;74.90;;;;;;4982715;28;20038;-84
2024/03/19 07:10:13;;;;;;;0.20;0.10;;;16.90;74.80;;;;;;4992422;28;20848;-86
2024/03/19 07:12:39;;;;;;;0.40;0.20;;;16.90;74.90;;;;;;4979933;28;20583;-86
2024/03/19 07:15:09;;;;;;;0.20;0.10;;;16.90;74.60;;;;;;4979987;28;20053;-86
2024/03/19 07:17:38;;;;;;;1.45;0.32;;;16.90;74.60;;;;;;4961241;28;20069;-86
2024/03/19 07:20:09;;;;;;;0.17;0.10;;;16.90;74.60;;;;;;4993347;28;20058;-87
2024/03/19 07:22:36;;;;;;;0.28;0.20;;;16.90;74.60;;;;;;4979095;28;20327;-86
2024/03/19 07:25:02;;;;;;;0.20;0.10;;;16.90;74.50;;;;;;4979519;28;20043;-90
2024/03/19 07:27:27;;;;;;;0.73;0.30;;;17.00;74.60;;;;;;4983064;28;20050;-83
2024/03/19 07:29:53;;;;;;;0.00;0.00;;;17.00;74.50;;;;;;4993281;28;20043;-89
2024/03/19 07:32:18;;;;;;;0.88;0.35;;;17.00;74.50;;;;;;4985198;28;20125;-88
2024/03/19 07:34:44;;;;;;;0.40;0.25;;;17.00;75.30;;;;;;4969567;28;20420;-88
2024/03/19 07:37:10;;;;;;;1.58;0.38;;;16.90;75.60;;;;;;4965547;28;20105;-88
2024/03/19 07:39:36;;;;;;;2.65;0.20;;;17.00;75.50;;;;;;4985266;28;20050;-88
2024/03/19 07:42:03;;;;;;;2.10;0.30;;;16.90;75.40;;;;;;4985484;28;20047;-88
2024/03/19 07:44:29;;;;;;;0.65;0.30;;;17.00;75.70;;;;;;4979308;28;20048;-87
2024/03/19 07:46:54;;;;;;;0.43;0.20;;;16.90;75.70;;;;;;5004699;28;20044;-88
2024/03/19 07:49:20;;;;;;;0.30;0.17;;;16.90;76.00;;;;;;4973451;28;20046;-88
2024/03/19 07:51:45;;;;;;;0.68;0.50;;;16.90;76.00;;;;;;4991935;28;20066;-88
2024/03/19 07:54:11;;;;;;;0.75;0.38;;;16.90;75.70;;;;;;5005075;28;20030;-88
2024/03/19 07:56:40;;;;;;;0.55;0.20;;;16.90;75.70;;;;;;4989303;28;20530;-87
2024/03/19 07:59:06;;;;;;;0.82;0.20;;;16.90;75.80;;;;;;4987948;28;20121;-87
2024/03/19 08:01:32;;;;;;;0.60;0.25;;;17.00;75.80;;;;;;4986677;28;20591;-86
2024/03/19 08:03:58;;;;;;;0.20;0.20;;;17.00;75.70;;;;;;4972292;28;20045;-87
2024/03/19 08:06:23;;;;;;;0.55;0.40;;;17.00;75.70;;;;;;4988939;28;20046;-83
2024/03/19 08:08:49;;;;;;;0.57;0.28;;;16.90;75.70;;;;;;4992275;28;20097;-87
2024/03/19 08:11:14;;;;;;;0.20;0.15;;;17.00;75.70;;;;;;4989498;28;20092;-89
2024/03/19 08:13:40;;;;;;;0.40;0.30;;;17.00;75.60;;;;;;4988967;28;20066;-88
2024/03/19 08:16:07;;;;;;;1.70;0.30;;;17.00;75.60;;;;;;4988838;28;20101;-88
2024/03/19 08:18:32;;;;;;;0.30;0.17;;;17.00;75.60;;;;;;4987735;28;20420;-89
2024/03/19 08:20:58;;;;;;;0.20;0.10;;;17.00;75.50;;;;;;5007326;28;20027;-89
2024/03/19 08:23:24;;;;;;;0.20;0.13;;;17.00;75.30;;;;;;4973192;28;20046;-89
2024/03/19 08:25:49;;;;;;;0.82;0.20;;;17.00;75.20;;;;;;4988849;28;20134;-89
2024/03/19 08:28:15;;;;;;;0.47;0.20;;;17.00;75.20;;;;;;4988578;28;20054;-88
2024/03/19 08:30:41;;;;;;;0.40;0.10;;;17.00;75.10;;;;;;4983242;28;20054;-89
2024/03/19 08:33:08;;;;;;;0.93;0.20;;;17.00;75.10;;;;;;5005949;28;20085;-88
2024/03/19 08:35:34;;;;;;;0.30;0.17;;;17.00;75.00;;;;;;4971348;28;20065;-89
2024/03/19 08:38:02;;;;;;;1.30;0.40;;;17.00;75.00;;;;;;4982601;28;20066;-90
2024/03/19 08:40:29;;;;;;;0.20;0.13;;;17.00;74.80;;;;;;4985227;28;20120;-88
2024/03/19 08:42:55;;;;;;;1.05;0.10;;;17.00;74.80;;;;;;4966693;28;20065;-88
2024/03/19 08:45:23;;;;;;;1.20;0.20;;;17.00;74.70;;;;;;4991376;28;20042;-89
2024/03/19 08:47:50;;;;;;;0.52;0.25;;;17.00;75.40;;;;;;4971657;28;20046;-89
2024/03/19 08:50:16;;;;;;;0.52;0.32;;;17.10;74.70;;;;;;5005814;28;20534;-89
2024/03/19 08:52:41;;;;;;;0.30;0.10;;;17.00;74.60;;;;;;4987131;28;20062;-89
2024/03/19 08:55:08;;;;;;;0.80;0.30;;;17.10;74.40;;;;;;4986166;28;20046;-89
2024/03/19 08:57:34;;;;;;;0.10;0.10;;;17.10;74.30;;;;;;4988324;28;20047;-89
2024/03/19 08:59:59;;;;;;;0.20;0.10;;;17.10;74.20;;;;;;4988822;28;20050;-88
2024/03/19 09:02:26;;;;;;;0.65;0.20;;;17.10;74.30;;;;;;4989711;28;20050;-89
2024/03/19 09:04:52;;;;;;;0.13;0.10;;;17.10;74.40;;;;;;4989315;28;20496;-89
2024/03/19 09:07:17;;;;;;;0.30;0.13;;;17.10;74.50;;;;;;4990966;28;20049;-89
2024/03/19 09:09:47;;;;;;;0.65;0.20;;;17.10;74.60;;;;;;4990420;28;20099;-89
2024/03/19 09:12:13;;;;;;;0.22;0.22;;;17.00;74.60;;;;;;4989785;28;20113;-89
2024/03/19 09:14:38;;;;;;;0.22;0.20;;;17.10;74.60;;;;;;4972557;28;20587;-89
2024/03/19 09:17:04;;;;;;;0.10;0.10;;;17.10;74.40;;;;;;4984656;28;20046;-90
2024/03/19 09:19:41;;;;;;;0.20;0.20;;;17.10;74.30;;;;;;4984380;28;22145;-88
2024/03/19 09:22:06;;;;;;;0.22;0.10;;;17.10;74.30;;;;;;4988745;28;20070;-89
2024/03/19 09:24:32;;;;;;;1.38;0.15;;;17.10;74.30;;;;;;4989580;28;20065;-90
2024/03/19 09:26:58;;;;;;;0.88;0.22;;;17.10;74.00;;;;;;4982084;28;20077;-89
2024/03/19 09:29:23;;;;;;;0.43;0.20;;;17.10;74.20;;;;;;4988853;28;20042;-89
2024/03/19 09:31:49;;;;;;;0.20;0.10;;;17.10;74.30;;;;;;5001503;28;20054;-90
2024/03/19 09:34:14;;;;;;;1.20;0.10;;;17.10;73.90;;;;;;4984756;28;20500;-89
2024/03/19 09:36:40;;;;;;;0.20;0.20;;;17.10;73.90;;;;;;4971171;28;20081;-89
2024/03/19 09:39:10;;;;;;;0.20;0.20;;;17.10;74.20;;;;;;4989780;28;20113;-89
2024/03/19 09:41:42;;;;;;;0.35;0.10;;;17.10;74.60;;;;;;4987628;28;20054;-90
2024/03/19 09:44:16;;;;;;;0.10;0.10;;;17.10;73.70;;;;;;4967939;28;20059;-90
2024/03/19 09:46:41;;;;;;;0.10;0.10;;;17.20;73.90;;;;;;4986484;28;20577;-89
2024/03/19 09:49:08;;;;;;;0.13;0.10;;;17.20;73.70;;;;;;4969028;28;20365;-89
2024/03/19 09:51:37;;;;;;;0.15;0.10;;;17.20;73.70;;;;;;5001673;28;20070;-89
2024/03/19 09:54:03;;;;;;;0.50;0.17;;;17.20;73.70;;;;;;4990743;28;20117;-90
2024/03/19 09:56:29;;;;;;;0.05;0.00;;;17.20;73.60;;;;;;5005204;28;20578;-89
2024/03/19 09:58:54;;;;;;;0.10;0.10;;;17.20;73.60;;;;;;5001659;28;20527;-89
2024/03/19 10:01:20;;;;;;;0.20;0.20;;;17.20;73.60;;;;;;4971631;28;20043;-89
2024/03/19 10:03:45;;;;;;;0.82;0.10;;;17.20;73.50;;;;;;4988217;28;20093;-90
2024/03/19 10:06:18;;;;;;;0.13;0.13;;;17.20;73.50;;;;;;5000347;28;20129;-89
2024/03/19 10:08:44;;;;;;;0.22;0.20;;;17.20;73.50;;;;;;4969187;28;20046;-90
2024/03/19 10:11:11;;;;;;;0.10;0.10;;;17.30;73.50;;;;;;4986541;28;20046;-89
2024/03/19 10:13:36;;;;;;;0.20;0.10;;;17.20;73.20;;;;;;4967510;28;20091;-89
2024/03/19 10:16:02;;;;;;;0.20;0.10;;;17.30;73.00;;;;;;4986110;28;20046;-88
2024/03/19 10:18:28;;;;;;;0.20;0.13;;;17.30;73.00;;;;;;5001982;28;20050;-86
2024/03/19 10:20:57;;;;;;;0.20;0.20;;;17.40;73.30;;;;;;4987574;28;20495;-84
2024/03/19 10:23:23;;;;;;;0.20;0.20;;;17.30;73.20;;;;;;4999770;28;20049;-87
2024/03/19 10:25:54;;;;;;;0.50;0.43;;;17.30;74.00;;;;;;4983006;28;20061;-87
2024/03/19 10:28:19;;;;;;;0.13;0.10;;;17.30;73.20;;;;;;5002660;28;20089;-87
2024/03/19 10:30:48;;;;;;;0.52;0.10;;;17.30;73.10;;;;;;4985742;28;20486;-88
2024/03/19 10:33:14;;;;;;;0.30;0.30;;;17.30;73.20;;;;;;4986239;28;20038;-89
2024/03/19 10:35:41;;;;;;;0.10;0.10;;;17.30;73.10;;;;;;4988242;28;20099;-89
2024/03/19 10:38:08;;;;;;;0.10;0.10;;;17.30;73.80;;;;;;4986928;28;20042;-89
2024/03/19 10:40:34;;;;;;;0.17;0.17;;;17.30;73.10;;;;;;4969652;28;20132;-88
2024/03/19 10:42:59;;;;;;;0.10;0.10;;;17.30;72.90;;;;;;4969313;28;20520;-89
2024/03/19 10:45:28;;;;;;;0.50;0.10;;;17.30;72.80;;;;;;4970631;28;20411;-88
2024/03/19 10:47:54;;;;;;;0.30;0.10;;;17.30;72.90;;;;;;4985100;28;20081;-89
2024/03/19 10:50:20;;;;;;;0.13;0.10;;;17.30;72.80;;;;;;4988765;28;20085;-87
2024/03/19 10:52:53;;;;;;;0.00;0.00;;;17.30;72.90;;;;;;4984140;28;20181;-87
2024/03/19 10:55:18;;;;;;;0.30;0.10;;;17.30;73.00;;;;;;4984924;28;20070;-86
2024/03/19 10:57:45;;;;;;;0.10;0.10;;;17.30;72.80;;;;;;4985142;28;20065;-87
2024/03/19 11:00:22;;;;;;;4.70;0.45;;;17.30;72.80;;;;;;4969248;28;20074;-87
2024/03/19 11:02:49;;;;;;;0.20;0.10;;;17.40;72.80;;;;;;4985277;28;20046;-87
2024/03/19 11:05:19;;;;;;;0.15;0.10;;;17.30;73.80;;;;;;4986361;28;20046;-87
2024/03/19 11:07:45;;;;;;;0.10;0.10;;;17.30;72.90;;;;;;4986544;28;20038;-88
2024/03/19 11:10:30;;;;;;;0.25;0.10;;;17.30;72.90;;;;;;4969250;28;20096;-87
2024/03/19 11:12:56;;;;;;;;;;;17.40;72.90;;;;;;4985109;28;20046;-85
2024/03/19 11:15:22;;;;;;;0.38;0.20;;;17.40;72.90;;;;;;4982684;28;19917;-90
2024/03/19 11:17:48;;;;;;;0.25;0.15;;;17.40;72.80;;;;;;4982409;28;20112;-85
2024/03/19 11:20:19;;;;;;;0.10;0.10;;;17.50;72.30;;;;;;4986597;28;20046;-84
2024/03/19 11:22:48;;;;;;;0.22;0.20;;;17.50;72.30;;;;;;4988316;28;20050;-85
2024/03/19 11:25:15;;;;;;;0.20;0.10;;;17.50;72.50;;;;;;4987047;28;20042;-86
2024/03/19 11:27:49;;;;;;;1.48;0.30;;;17.50;72.60;;;;;;4987810;28;20056;-86
2024/03/19 11:30:15;;;;;;;2.47;0.60;;;17.60;72.70;;;;;;4992638;28;20110;-85
2024/03/19 11:32:41;;;;;;;2.05;0.80;;;17.60;74.30;;;;;;4987424;28;20034;-84
2024/03/19 11:35:20;;;;;;;1.63;0.47;;;17.70;73.30;;;;;;4987652;28;20046;-90
2024/03/19 11:37:49;;;;;;;1.88;0.68;;;17.70;73.30;;;;;;4988428;28;20046;-86
2024/03/19 11:40:16;;;;;;;5.78;0.85;;;17.70;72.30;;;;;;4985688;28;20069;-87
2024/03/19 11:42:42;;;;;;;1.33;0.43;;;17.70;72.70;;;;;;4986938;28;20495;-87
2024/03/19 11:45:10;;;;;;;1.00;0.50;;;17.70;72.10;;;;;;4971907;28;20543;-88
2024/03/19 11:47:36;;;;;;;0.50;0.40;;;17.70;72.30;;;;;;4965027;28;20042;-89
2024/03/19 11:50:02;;;;;;;1.13;0.70;;;17.70;72.60;;;;;;4999841;28;20040;-86
2024/03/19 11:52:27;;;;;;;2.40;1.10;;;17.70;72.40;;;;;;4988395;28;20066;-84
2024/03/19 11:54:53;;;;;;;1.98;1.70;;;17.70;75.40;;;;;;4988157;28;20053;-83
2024/03/19 11:57:18;;;;;;;0.98;0.98;;;17.70;77.00;;;;;;4987492;28;20035;-85
2024/03/19 11:59:44;;;;;;;0.82;0.70;;;17.60;77.50;;;;;;4987913;28;20047;-84
2024/03/19 12:02:12;;;;;;;0.60;0.45;;;17.60;77.70;;;;;;4988194;28;20066;-86
2024/03/19 12:04:38;;;;;;;2.15;0.40;;;17.60;76.10;;;;;;4990476;28;20042;-85
2024/03/19 12:07:03;;;;;;;1.65;0.60;;;17.70;75.70;;;;;;4987401;28;20120;-85
2024/03/19 12:09:29;;;;;;;0.60;0.32;;;17.70;75.80;;;;;;4990588;28;20102;-86
2024/03/19 12:11:55;;;;;;;0.63;0.50;;;17.70;74.50;;;;;;4973110;28;20178;-86
2024/03/19 12:14:24;;;;;;;0.90;0.60;;;17.70;74.50;;;;;;4989700;28;20046;-85
2024/03/19 12:16:50;;;;;;;0.85;0.47;;;17.70;74.30;;;;;;4974281;28;20039;-85
2024/03/19 12:19:19;;;;;;;0.40;0.40;;;17.70;73.70;;;;;;4990177;28;20101;-86
2024/03/19 12:21:46;;;;;;;0.50;0.50;;;17.70;73.50;;;;;;4983165;28;20039;-85
2024/03/19 12:24:12;;;;;;;0.85;0.50;;;17.80;73.10;;;;;;4987132;28;20042;-86
2024/03/19 12:26:43;;;;;;;0.30;0.30;;;17.80;72.80;;;;;;4973618;28;20416;-86
2024/03/19 12:29:24;;;;;;;0.32;0.22;;;17.80;72.70;;;;;;4990771;28;20121;-85
2024/03/19 12:31:59;;;;;;;0.30;0.30;;;17.80;72.60;;;;;;4987358;28;20077;-86
2024/03/19 12:37:12;;;;;;;0.63;0.40;;;17.80;72.60;;;;;;4976441;28;20516;-85
2024/03/19 12:39:38;;;;;;;0.38;0.20;;;17.90;72.40;;;;;;4986691;28;20042;-85
2024/03/19 12:42:10;;;;;;;0.45;0.45;;;17.90;72.30;;;;;;4987329;28;20053;-85
2024/03/19 12:44:37;;;;;;;0.40;0.40;;;17.80;73.20;;;;;;4987739;28;20104;-85
2024/03/19 12:47:04;;;;;;;0.93;0.40;;;17.80;72.40;;;;;;4970188;28;20042;-84